sensor_id;sensor_type;location;lat;lon;timestamp;P1;durP1;ratioP1;P2;durP2;ratioP2
16845;SDS011;8539;53.188;8.696;2023-01-28T00:02:22;9.25;;;5.97;;
16845;SDS011;8539;53.188;8.696;2023-01-28T00:04:54;7.45;;;6.28;;
16845;SDS011;8539;53.188;8.696;2023-01-28T00:07:20;6.30;;;5.70;;
16845;SDS011;8539;53.188;8.696;2023-01-28T00:09:47;8.05;;;5.43;;
16845;SDS011;8539;53.188;8.696;2023-01-28T00:12:13;6.03;;;4.47;;
16845;SDS011;8539;53.188;8.696;2023-01-28T00:14:39;4.32;;;3.83;;
16845;SDS011;8539;53.188;8.696;2023-01-28T00:17:05;4.28;;;3.83;;
16845;SDS011;8539;53.188;8.696;2023-01-28T00:19:31;11.00;;;4.22;;
16845;SDS011;8539;53.188;8.696;2023-01-28T00:21:57;7.18;;;3.63;;
16845;SDS011;8539;53.188;8.696;2023-01-28T00:24:23;6.85;;;3.78;;
16845;SDS011;8539;53.188;8.696;2023-01-28T00:26:49;7.85;;;4.25;;
16845;SDS011;8539;53.188;8.696;2023-01-28T00:29:15;14.80;;;4.47;;
16845;SDS011;8539;53.188;8.696;2023-01-28T00:31:42;5.85;;;4.05;;
16845;SDS011;8539;53.188;8.696;2023-01-28T00:34:08;4.40;;;3.25;;
16845;SDS011;8539;53.188;8.696;2023-01-28T00:36:34;5.20;;;3.28;;
16845;SDS011;8539;53.188;8.696;2023-01-28T00:39:03;5.45;;;3.45;;
16845;SDS011;8539;53.188;8.696;2023-01-28T00:41:30;5.80;;;3.10;;
16845;SDS011;8539;53.188;8.696;2023-01-28T00:43:57;5.68;;;3.63;;
16845;SDS011;8539;53.188;8.696;2023-01-28T00:46:24;6.25;;;3.85;;
16845;SDS011;8539;53.188;8.696;2023-01-28T00:48:51;4.53;;;3.30;;
16845;SDS011;8539;53.188;8.696;2023-01-28T00:51:18;5.55;;;3.80;;
16845;SDS011;8539;53.188;8.696;2023-01-28T00:53:45;3.60;;;3.30;;
16845;SDS011;8539;53.188;8.696;2023-01-28T00:56:12;5.68;;;3.83;;
16845;SDS011;8539;53.188;8.696;2023-01-28T00:58:40;5.35;;;2.88;;
16845;SDS011;8539;53.188;8.696;2023-01-28T01:01:08;4.38;;;3.72;;
16845;SDS011;8539;53.188;8.696;2023-01-28T01:03:45;3.58;;;3.13;;
16845;SDS011;8539;53.188;8.696;2023-01-28T01:06:12;3.35;;;3.05;;
16845;SDS011;8539;53.188;8.696;2023-01-28T01:08:39;3.58;;;3.17;;
16845;SDS011;8539;53.188;8.696;2023-01-28T01:11:08;7.03;;;3.10;;
16845;SDS011;8539;53.188;8.696;2023-01-28T01:13:36;5.03;;;2.78;;
16845;SDS011;8539;53.188;8.696;2023-01-28T01:16:07;3.95;;;3.55;;
16845;SDS011;8539;53.188;8.696;2023-01-28T01:18:41;4.80;;;3.65;;
16845;SDS011;8539;53.188;8.696;2023-01-28T01:21:08;3.95;;;3.40;;
16845;SDS011;8539;53.188;8.696;2023-01-28T01:23:45;6.07;;;3.05;;
16845;SDS011;8539;53.188;8.696;2023-01-28T01:26:12;5.68;;;3.75;;
16845;SDS011;8539;53.188;8.696;2023-01-28T01:28:38;4.70;;;3.00;;
16845;SDS011;8539;53.188;8.696;2023-01-28T01:31:06;6.07;;;4.95;;
16845;SDS011;8539;53.188;8.696;2023-01-28T01:33:35;4.50;;;3.80;;
16845;SDS011;8539;53.188;8.696;2023-01-28T01:36:01;5.53;;;4.28;;
16845;SDS011;8539;53.188;8.696;2023-01-28T01:38:28;7.30;;;4.40;;
16845;SDS011;8539;53.188;8.696;2023-01-28T01:40:58;7.85;;;4.78;;
16845;SDS011;8539;53.188;8.696;2023-01-28T01:43:44;6.32;;;4.15;;
16845;SDS011;8539;53.188;8.696;2023-01-28T01:46:12;7.72;;;4.82;;
16845;SDS011;8539;53.188;8.696;2023-01-28T01:48:40;9.95;;;5.57;;
16845;SDS011;8539;53.188;8.696;2023-01-28T01:51:06;6.13;;;5.15;;
16845;SDS011;8539;53.188;8.696;2023-01-28T01:53:37;7.95;;;4.80;;
16845;SDS011;8539;53.188;8.696;2023-01-28T01:56:06;7.18;;;4.85;;
16845;SDS011;8539;53.188;8.696;2023-01-28T01:58:36;9.95;;;5.25;;
16845;SDS011;8539;53.188;8.696;2023-01-28T02:01:05;8.80;;;5.78;;
16845;SDS011;8539;53.188;8.696;2023-01-28T02:03:43;9.00;;;5.43;;
16845;SDS011;8539;53.188;8.696;2023-01-28T02:06:14;10.13;;;5.95;;
16845;SDS011;8539;53.188;8.696;2023-01-28T02:08:41;7.70;;;5.60;;
16845;SDS011;8539;53.188;8.696;2023-01-28T02:11:08;5.53;;;5.03;;
16845;SDS011;8539;53.188;8.696;2023-01-28T02:13:36;7.80;;;5.63;;
16845;SDS011;8539;53.188;8.696;2023-01-28T02:16:06;7.20;;;5.72;;
16845;SDS011;8539;53.188;8.696;2023-01-28T02:18:32;6.03;;;5.20;;
16845;SDS011;8539;53.188;8.696;2023-01-28T02:29:55;7.10;;;6.40;;
16845;SDS011;8539;53.188;8.696;2023-01-28T02:32:30;7.78;;;6.22;;
16845;SDS011;8539;53.188;8.696;2023-01-28T02:37:43;9.43;;;7.55;;
16845;SDS011;8539;53.188;8.696;2023-01-28T02:40:38;11.73;;;7.15;;
16845;SDS011;8539;53.188;8.696;2023-01-28T02:43:44;9.02;;;6.85;;
16845;SDS011;8539;53.188;8.696;2023-01-28T02:49:27;10.23;;;7.70;;
16845;SDS011;8539;53.188;8.696;2023-01-28T02:57:29;11.30;;;7.07;;
16845;SDS011;8539;53.188;8.696;2023-01-28T03:02:52;10.88;;;6.65;;
16845;SDS011;8539;53.188;8.696;2023-01-28T03:05:34;6.43;;;5.82;;
16845;SDS011;8539;53.188;8.696;2023-01-28T03:08:03;9.60;;;6.65;;
16845;SDS011;8539;53.188;8.696;2023-01-28T03:10:55;8.90;;;6.65;;
16845;SDS011;8539;53.188;8.696;2023-01-28T03:13:40;8.45;;;6.95;;
16845;SDS011;8539;53.188;8.696;2023-01-28T03:16:27;9.10;;;7.63;;
16845;SDS011;8539;53.188;8.696;2023-01-28T03:19:14;11.45;;;6.72;;
16845;SDS011;8539;53.188;8.696;2023-01-28T03:22:00;8.68;;;6.18;;
16845;SDS011;8539;53.188;8.696;2023-01-28T03:24:46;9.30;;;6.47;;
16845;SDS011;8539;53.188;8.696;2023-01-28T03:33:26;8.52;;;6.78;;
16845;SDS011;8539;53.188;8.696;2023-01-28T03:36:13;9.55;;;6.75;;
16845;SDS011;8539;53.188;8.696;2023-01-28T03:38:58;12.55;;;6.85;;
16845;SDS011;8539;53.188;8.696;2023-01-28T03:41:24;10.77;;;7.93;;
16845;SDS011;8539;53.188;8.696;2023-01-28T03:43:51;7.65;;;6.63;;
16845;SDS011;8539;53.188;8.696;2023-01-28T03:46:18;8.85;;;6.82;;
16845;SDS011;8539;53.188;8.696;2023-01-28T03:48:44;10.13;;;7.47;;
16845;SDS011;8539;53.188;8.696;2023-01-28T03:51:11;13.45;;;7.10;;
16845;SDS011;8539;53.188;8.696;2023-01-28T03:53:37;10.60;;;6.93;;
16845;SDS011;8539;53.188;8.696;2023-01-28T03:56:05;11.77;;;7.80;;
16845;SDS011;8539;53.188;8.696;2023-01-28T03:58:31;12.98;;;7.38;;
16845;SDS011;8539;53.188;8.696;2023-01-28T04:01:15;9.57;;;7.97;;
16845;SDS011;8539;53.188;8.696;2023-01-28T04:03:41;9.48;;;7.57;;
16845;SDS011;8539;53.188;8.696;2023-01-28T04:06:08;11.05;;;8.30;;
16845;SDS011;8539;53.188;8.696;2023-01-28T04:08:34;9.75;;;8.15;;
16845;SDS011;8539;53.188;8.696;2023-01-28T04:11:00;10.23;;;7.80;;
16845;SDS011;8539;53.188;8.696;2023-01-28T04:13:40;8.93;;;7.40;;
16845;SDS011;8539;53.188;8.696;2023-01-28T04:16:07;10.40;;;7.53;;
16845;SDS011;8539;53.188;8.696;2023-01-28T04:18:33;12.52;;;8.20;;
16845;SDS011;8539;53.188;8.696;2023-01-28T04:20:59;9.73;;;7.15;;
16845;SDS011;8539;53.188;8.696;2023-01-28T04:23:25;11.13;;;6.90;;
16845;SDS011;8539;53.188;8.696;2023-01-28T04:25:54;11.52;;;7.70;;
16845;SDS011;8539;53.188;8.696;2023-01-28T04:28:20;9.85;;;6.90;;
16845;SDS011;8539;53.188;8.696;2023-01-28T04:30:46;11.63;;;7.70;;
16845;SDS011;8539;53.188;8.696;2023-01-28T04:33:13;8.13;;;6.57;;
16845;SDS011;8539;53.188;8.696;2023-01-28T04:35:39;8.55;;;7.65;;
16845;SDS011;8539;53.188;8.696;2023-01-28T04:38:05;10.80;;;7.45;;
16845;SDS011;8539;53.188;8.696;2023-01-28T04:40:31;9.60;;;7.20;;
16845;SDS011;8539;53.188;8.696;2023-01-28T04:42:57;10.32;;;7.13;;
16845;SDS011;8539;53.188;8.696;2023-01-28T04:45:23;9.20;;;6.70;;
16845;SDS011;8539;53.188;8.696;2023-01-28T04:47:49;12.82;;;8.05;;
16845;SDS011;8539;53.188;8.696;2023-01-28T04:50:15;7.90;;;7.10;;
16845;SDS011;8539;53.188;8.696;2023-01-28T04:52:41;10.75;;;9.63;;
16845;SDS011;8539;53.188;8.696;2023-01-28T04:55:08;12.20;;;7.95;;
16845;SDS011;8539;53.188;8.696;2023-01-28T04:57:34;9.75;;;7.15;;
16845;SDS011;8539;53.188;8.696;2023-01-28T05:00:00;10.55;;;7.70;;
16845;SDS011;8539;53.188;8.696;2023-01-28T05:02:27;10.40;;;7.70;;
16845;SDS011;8539;53.188;8.696;2023-01-28T05:04:53;11.32;;;7.63;;
16845;SDS011;8539;53.188;8.696;2023-01-28T05:07:19;14.13;;;8.30;;
16845;SDS011;8539;53.188;8.696;2023-01-28T05:09:45;12.57;;;7.78;;
16845;SDS011;8539;53.188;8.696;2023-01-28T05:12:11;11.75;;;7.85;;
16845;SDS011;8539;53.188;8.696;2023-01-28T05:14:37;11.13;;;8.65;;
16845;SDS011;8539;53.188;8.696;2023-01-28T05:17:03;9.55;;;7.60;;
16845;SDS011;8539;53.188;8.696;2023-01-28T05:19:29;13.32;;;7.53;;
16845;SDS011;8539;53.188;8.696;2023-01-28T05:21:55;12.00;;;8.70;;
16845;SDS011;8539;53.188;8.696;2023-01-28T05:24:22;11.40;;;8.32;;
16845;SDS011;8539;53.188;8.696;2023-01-28T05:26:48;11.45;;;8.90;;
16845;SDS011;8539;53.188;8.696;2023-01-28T05:29:14;18.35;;;9.68;;
16845;SDS011;8539;53.188;8.696;2023-01-28T05:31:40;11.38;;;8.95;;
16845;SDS011;8539;53.188;8.696;2023-01-28T05:34:06;15.68;;;8.93;;
16845;SDS011;8539;53.188;8.696;2023-01-28T05:36:33;12.93;;;9.02;;
16845;SDS011;8539;53.188;8.696;2023-01-28T05:38:59;21.60;;;10.35;;
16845;SDS011;8539;53.188;8.696;2023-01-28T05:41:25;13.45;;;9.70;;
16845;SDS011;8539;53.188;8.696;2023-01-28T05:43:51;15.85;;;10.07;;
16845;SDS011;8539;53.188;8.696;2023-01-28T05:46:17;12.95;;;9.73;;
16845;SDS011;8539;53.188;8.696;2023-01-28T05:48:43;14.18;;;9.55;;
16845;SDS011;8539;53.188;8.696;2023-01-28T05:51:10;15.20;;;11.07;;
16845;SDS011;8539;53.188;8.696;2023-01-28T05:53:36;13.45;;;10.25;;
16845;SDS011;8539;53.188;8.696;2023-01-28T05:56:02;11.43;;;9.18;;
16845;SDS011;8539;53.188;8.696;2023-01-28T05:58:28;13.15;;;10.43;;
16845;SDS011;8539;53.188;8.696;2023-01-28T06:00:56;17.23;;;10.00;;
16845;SDS011;8539;53.188;8.696;2023-01-28T06:03:22;15.85;;;11.30;;
16845;SDS011;8539;53.188;8.696;2023-01-28T06:05:48;15.40;;;9.88;;
16845;SDS011;8539;53.188;8.696;2023-01-28T06:08:14;15.32;;;10.63;;
16845;SDS011;8539;53.188;8.696;2023-01-28T06:10:40;14.73;;;10.48;;
16845;SDS011;8539;53.188;8.696;2023-01-28T06:13:06;15.90;;;11.50;;
16845;SDS011;8539;53.188;8.696;2023-01-28T06:15:32;14.77;;;10.38;;
16845;SDS011;8539;53.188;8.696;2023-01-28T06:17:59;16.95;;;11.43;;
16845;SDS011;8539;53.188;8.696;2023-01-28T06:20:25;15.88;;;10.75;;
16845;SDS011;8539;53.188;8.696;2023-01-28T06:22:51;16.73;;;11.40;;
16845;SDS011;8539;53.188;8.696;2023-01-28T06:25:17;19.80;;;11.32;;
16845;SDS011;8539;53.188;8.696;2023-01-28T06:27:44;15.80;;;10.88;;
16845;SDS011;8539;53.188;8.696;2023-01-28T06:30:10;19.98;;;11.02;;
16845;SDS011;8539;53.188;8.696;2023-01-28T06:32:37;18.75;;;12.45;;
16845;SDS011;8539;53.188;8.696;2023-01-28T06:35:03;16.60;;;11.18;;
16845;SDS011;8539;53.188;8.696;2023-01-28T06:37:29;16.60;;;11.60;;
16845;SDS011;8539;53.188;8.696;2023-01-28T06:39:56;22.20;;;14.15;;
16845;SDS011;8539;53.188;8.696;2023-01-28T06:42:22;24.67;;;14.18;;
16845;SDS011;8539;53.188;8.696;2023-01-28T06:44:48;20.73;;;13.85;;
16845;SDS011;8539;53.188;8.696;2023-01-28T06:47:14;21.80;;;13.07;;
16845;SDS011;8539;53.188;8.696;2023-01-28T06:49:40;26.15;;;13.13;;
16845;SDS011;8539;53.188;8.696;2023-01-28T06:52:06;22.08;;;14.48;;
16845;SDS011;8539;53.188;8.696;2023-01-28T06:54:32;23.52;;;14.55;;
16845;SDS011;8539;53.188;8.696;2023-01-28T06:56:58;29.70;;;15.50;;
16845;SDS011;8539;53.188;8.696;2023-01-28T06:59:24;23.65;;;15.10;;
16845;SDS011;8539;53.188;8.696;2023-01-28T07:01:51;22.67;;;14.95;;
16845;SDS011;8539;53.188;8.696;2023-01-28T07:04:17;23.80;;;15.00;;
16845;SDS011;8539;53.188;8.696;2023-01-28T07:06:43;26.48;;;15.02;;
16845;SDS011;8539;53.188;8.696;2023-01-28T07:09:09;24.40;;;14.73;;
16845;SDS011;8539;53.188;8.696;2023-01-28T07:11:35;24.35;;;14.90;;
16845;SDS011;8539;53.188;8.696;2023-01-28T07:14:01;24.05;;;15.65;;
16845;SDS011;8539;53.188;8.696;2023-01-28T07:16:27;34.13;;;15.38;;
16845;SDS011;8539;53.188;8.696;2023-01-28T07:18:54;20.17;;;13.85;;
16845;SDS011;8539;53.188;8.696;2023-01-28T07:21:20;19.92;;;14.00;;
16845;SDS011;8539;53.188;8.696;2023-01-28T07:23:46;26.83;;;15.07;;
16845;SDS011;8539;53.188;8.696;2023-01-28T07:26:12;23.85;;;14.98;;
16845;SDS011;8539;53.188;8.696;2023-01-28T07:28:40;19.67;;;14.30;;
16845;SDS011;8539;53.188;8.696;2023-01-28T07:31:06;23.70;;;13.65;;
16845;SDS011;8539;53.188;8.696;2023-01-28T07:33:32;19.55;;;13.45;;
16845;SDS011;8539;53.188;8.696;2023-01-28T07:35:58;24.52;;;14.30;;
16845;SDS011;8539;53.188;8.696;2023-01-28T07:38:24;26.40;;;15.82;;
16845;SDS011;8539;53.188;8.696;2023-01-28T07:40:51;24.58;;;14.70;;
16845;SDS011;8539;53.188;8.696;2023-01-28T07:43:17;18.92;;;13.10;;
16845;SDS011;8539;53.188;8.696;2023-01-28T07:45:43;30.60;;;15.38;;
16845;SDS011;8539;53.188;8.696;2023-01-28T07:48:10;23.88;;;14.77;;
16845;SDS011;8539;53.188;8.696;2023-01-28T07:50:38;26.10;;;15.25;;
16845;SDS011;8539;53.188;8.696;2023-01-28T07:53:05;24.15;;;14.90;;
16845;SDS011;8539;53.188;8.696;2023-01-28T07:55:33;28.63;;;16.75;;
16845;SDS011;8539;53.188;8.696;2023-01-28T07:58:00;32.72;;;17.48;;
16845;SDS011;8539;53.188;8.696;2023-01-28T08:00:29;29.50;;;17.02;;
16845;SDS011;8539;53.188;8.696;2023-01-28T08:02:57;30.58;;;17.23;;
16845;SDS011;8539;53.188;8.696;2023-01-28T08:05:26;26.00;;;16.55;;
16845;SDS011;8539;53.188;8.696;2023-01-28T08:08:01;27.83;;;16.75;;
16845;SDS011;8539;53.188;8.696;2023-01-28T08:10:27;28.60;;;16.73;;
16845;SDS011;8539;53.188;8.696;2023-01-28T08:12:54;31.50;;;17.20;;
16845;SDS011;8539;53.188;8.696;2023-01-28T08:15:22;31.73;;;16.35;;
16845;SDS011;8539;53.188;8.696;2023-01-28T08:17:49;28.60;;;16.65;;
16845;SDS011;8539;53.188;8.696;2023-01-28T08:20:15;28.42;;;17.40;;
16845;SDS011;8539;53.188;8.696;2023-01-28T08:22:42;33.92;;;17.65;;
16845;SDS011;8539;53.188;8.696;2023-01-28T08:25:08;28.23;;;15.63;;
16845;SDS011;8539;53.188;8.696;2023-01-28T08:27:34;37.05;;;17.90;;
16845;SDS011;8539;53.188;8.696;2023-01-28T08:30:00;30.35;;;16.70;;
16845;SDS011;8539;53.188;8.696;2023-01-28T08:32:27;29.42;;;16.80;;
16845;SDS011;8539;53.188;8.696;2023-01-28T08:34:54;31.27;;;18.23;;
16845;SDS011;8539;53.188;8.696;2023-01-28T08:37:21;32.30;;;17.60;;
16845;SDS011;8539;53.188;8.696;2023-01-28T08:39:47;33.75;;;18.70;;
16845;SDS011;8539;53.188;8.696;2023-01-28T08:42:13;36.80;;;21.45;;
16845;SDS011;8539;53.188;8.696;2023-01-28T08:44:39;35.30;;;20.13;;
16845;SDS011;8539;53.188;8.696;2023-01-28T08:47:05;33.03;;;19.85;;
16845;SDS011;8539;53.188;8.696;2023-01-28T08:49:31;37.38;;;21.20;;
16845;SDS011;8539;53.188;8.696;2023-01-28T08:51:57;33.67;;;19.63;;
16845;SDS011;8539;53.188;8.696;2023-01-28T08:54:24;39.58;;;22.83;;
16845;SDS011;8539;53.188;8.696;2023-01-28T08:56:50;36.47;;;19.67;;
16845;SDS011;8539;53.188;8.696;2023-01-28T08:59:16;32.33;;;20.63;;
16845;SDS011;8539;53.188;8.696;2023-01-28T09:01:43;32.05;;;19.05;;
16845;SDS011;8539;53.188;8.696;2023-01-28T09:04:10;32.40;;;18.30;;
16845;SDS011;8539;53.188;8.696;2023-01-28T09:06:36;27.92;;;17.15;;
16845;SDS011;8539;53.188;8.696;2023-01-28T09:09:02;33.25;;;18.38;;
16845;SDS011;8539;53.188;8.696;2023-01-28T09:11:29;28.63;;;16.73;;
16845;SDS011;8539;53.188;8.696;2023-01-28T09:13:58;29.17;;;17.70;;
16845;SDS011;8539;53.188;8.696;2023-01-28T09:16:24;30.45;;;15.68;;
16845;SDS011;8539;53.188;8.696;2023-01-28T09:18:51;23.65;;;15.40;;
16845;SDS011;8539;53.188;8.696;2023-01-28T09:21:18;24.83;;;15.43;;
16845;SDS011;8539;53.188;8.696;2023-01-28T09:23:45;24.90;;;16.65;;
16845;SDS011;8539;53.188;8.696;2023-01-28T09:26:11;26.02;;;14.95;;
16845;SDS011;8539;53.188;8.696;2023-01-28T09:28:37;24.52;;;15.95;;
16845;SDS011;8539;53.188;8.696;2023-01-28T09:31:05;30.95;;;16.95;;
16845;SDS011;8539;53.188;8.696;2023-01-28T09:33:33;22.17;;;14.95;;
16845;SDS011;8539;53.188;8.696;2023-01-28T09:36:02;28.02;;;16.90;;
16845;SDS011;8539;53.188;8.696;2023-01-28T09:38:29;24.50;;;14.95;;
16845;SDS011;8539;53.188;8.696;2023-01-28T09:40:55;25.50;;;16.30;;
16845;SDS011;8539;53.188;8.696;2023-01-28T09:46:13;23.13;;;13.65;;
16845;SDS011;8539;53.188;8.696;2023-01-28T09:48:43;21.77;;;14.20;;
16845;SDS011;8539;53.188;8.696;2023-01-28T09:51:27;21.30;;;14.07;;
16845;SDS011;8539;53.188;8.696;2023-01-28T09:54:26;27.42;;;17.17;;
16845;SDS011;8539;53.188;8.696;2023-01-28T09:56:50;22.65;;;13.43;;
16845;SDS011;8539;53.188;8.696;2023-01-28T09:59:23;29.60;;;15.98;;
16845;SDS011;8539;53.188;8.696;2023-01-28T10:01:58;29.50;;;16.83;;
16845;SDS011;8539;53.188;8.696;2023-01-28T10:04:42;22.88;;;15.07;;
16845;SDS011;8539;53.188;8.696;2023-01-28T10:10:25;26.25;;;16.23;;
16845;SDS011;8539;53.188;8.696;2023-01-28T10:13:19;26.88;;;16.55;;
16845;SDS011;8539;53.188;8.696;2023-01-28T10:16:02;23.05;;;16.45;;
16845;SDS011;8539;53.188;8.696;2023-01-28T10:18:34;23.55;;;15.45;;
16845;SDS011;8539;53.188;8.696;2023-01-28T10:21:07;21.65;;;15.00;;
16845;SDS011;8539;53.188;8.696;2023-01-28T10:23:45;21.45;;;14.25;;
16845;SDS011;8539;53.188;8.696;2023-01-28T10:26:18;25.38;;;15.68;;
16845;SDS011;8539;53.188;8.696;2023-01-28T10:28:50;23.08;;;16.80;;
16845;SDS011;8539;53.188;8.696;2023-01-28T10:31:41;21.58;;;14.95;;
16845;SDS011;8539;53.188;8.696;2023-01-28T10:34:15;18.95;;;14.23;;
16845;SDS011;8539;53.188;8.696;2023-01-28T10:36:41;20.17;;;14.63;;
16845;SDS011;8539;53.188;8.696;2023-01-28T10:39:16;24.38;;;15.52;;
16845;SDS011;8539;53.188;8.696;2023-01-28T10:41:50;20.85;;;14.98;;
16845;SDS011;8539;53.188;8.696;2023-01-28T10:44:30;16.60;;;12.70;;
16845;SDS011;8539;53.188;8.696;2023-01-28T10:49:55;18.48;;;13.23;;
16845;SDS011;8539;53.188;8.696;2023-01-28T10:52:27;19.23;;;13.10;;
16845;SDS011;8539;53.188;8.696;2023-01-28T10:54:58;19.63;;;13.35;;
16845;SDS011;8539;53.188;8.696;2023-01-28T10:57:31;15.65;;;11.43;;
16845;SDS011;8539;53.188;8.696;2023-01-28T11:00:08;20.77;;;14.45;;
16845;SDS011;8539;53.188;8.696;2023-01-28T11:02:37;20.73;;;13.98;;
16845;SDS011;8539;53.188;8.696;2023-01-28T11:07:45;18.90;;;14.07;;
16845;SDS011;8539;53.188;8.696;2023-01-28T11:10:33;20.83;;;14.02;;
16845;SDS011;8539;53.188;8.696;2023-01-28T11:13:03;20.15;;;14.93;;
16845;SDS011;8539;53.188;8.696;2023-01-28T11:15:48;24.85;;;15.73;;
16845;SDS011;8539;53.188;8.696;2023-01-28T11:18:21;22.23;;;14.18;;
16845;SDS011;8539;53.188;8.696;2023-01-28T11:20:53;18.95;;;13.80;;
16845;SDS011;8539;53.188;8.696;2023-01-28T11:23:24;17.63;;;11.82;;
16845;SDS011;8539;53.188;8.696;2023-01-28T11:28:30;18.88;;;12.00;;
16845;SDS011;8539;53.188;8.696;2023-01-28T11:30:57;19.00;;;12.00;;
16845;SDS011;8539;53.188;8.696;2023-01-28T11:33:35;13.80;;;11.20;;
16845;SDS011;8539;53.188;8.696;2023-01-28T11:38:29;16.02;;;10.90;;
16845;SDS011;8539;53.188;8.696;2023-01-28T11:40:56;10.80;;;9.68;;
16845;SDS011;8539;53.188;8.696;2023-01-28T11:43:24;15.68;;;11.45;;
16845;SDS011;8539;53.188;8.696;2023-01-28T11:46:02;19.52;;;10.95;;
16845;SDS011;8539;53.188;8.696;2023-01-28T11:52:15;15.50;;;12.07;;
16845;SDS011;8539;53.188;8.696;2023-01-28T12:19:36;11.55;;;9.07;;
16845;SDS011;8539;53.188;8.696;2023-01-28T12:41:27;11.50;;;8.70;;
16845;SDS011;8539;53.188;8.696;2023-01-28T12:44:03;11.68;;;9.48;;
16845;SDS011;8539;53.188;8.696;2023-01-28T12:51:50;13.10;;;8.82;;
16845;SDS011;8539;53.188;8.696;2023-01-28T12:54:42;13.50;;;8.73;;
16845;SDS011;8539;53.188;8.696;2023-01-28T12:57:26;11.07;;;7.68;;
16845;SDS011;8539;53.188;8.696;2023-01-28T12:59:56;17.02;;;8.15;;
16845;SDS011;8539;53.188;8.696;2023-01-28T13:02:29;12.30;;;7.70;;
16845;SDS011;8539;53.188;8.696;2023-01-28T13:05:05;13.27;;;8.18;;
16845;SDS011;8539;53.188;8.696;2023-01-28T13:10:34;15.65;;;9.98;;
16845;SDS011;8539;53.188;8.696;2023-01-28T13:13:12;13.73;;;8.70;;
16845;SDS011;8539;53.188;8.696;2023-01-28T13:18:27;12.20;;;9.23;;
16845;SDS011;8539;53.188;8.696;2023-01-28T13:21:11;11.88;;;8.68;;
16845;SDS011;8539;53.188;8.696;2023-01-28T13:24:02;12.20;;;8.27;;
16845;SDS011;8539;53.188;8.696;2023-01-28T13:29:06;13.70;;;8.02;;
16845;SDS011;8539;53.188;8.696;2023-01-28T13:31:37;13.50;;;8.30;;
16845;SDS011;8539;53.188;8.696;2023-01-28T13:34:06;11.50;;;8.80;;
16845;SDS011;8539;53.188;8.696;2023-01-28T13:36:36;10.75;;;7.40;;
16845;SDS011;8539;53.188;8.696;2023-01-28T13:39:16;9.38;;;8.02;;
16845;SDS011;8539;53.188;8.696;2023-01-28T13:41:44;7.28;;;6.47;;
16845;SDS011;8539;53.188;8.696;2023-01-28T13:46:55;9.05;;;6.53;;
16845;SDS011;8539;53.188;8.696;2023-01-28T13:49:40;9.15;;;7.30;;
16845;SDS011;8539;53.188;8.696;2023-01-28T13:54:53;8.65;;;7.47;;
16845;SDS011;8539;53.188;8.696;2023-01-28T14:02:28;12.20;;;7.63;;
16845;SDS011;8539;53.188;8.696;2023-01-28T14:08:06;13.00;;;7.82;;
16845;SDS011;8539;53.188;8.696;2023-01-28T14:13:41;8.95;;;7.68;;
16845;SDS011;8539;53.188;8.696;2023-01-28T14:16:43;13.00;;;7.63;;
16845;SDS011;8539;53.188;8.696;2023-01-28T14:19:17;11.45;;;8.30;;
16845;SDS011;8539;53.188;8.696;2023-01-28T14:21:50;14.35;;;9.10;;
16845;SDS011;8539;53.188;8.696;2023-01-28T14:24:16;11.85;;;7.95;;
16845;SDS011;8539;53.188;8.696;2023-01-28T14:26:45;10.68;;;7.80;;
16845;SDS011;8539;53.188;8.696;2023-01-28T14:29:41;11.40;;;7.75;;
16845;SDS011;8539;53.188;8.696;2023-01-28T14:32:13;10.65;;;7.90;;
16845;SDS011;8539;53.188;8.696;2023-01-28T14:34:46;8.23;;;6.88;;
16845;SDS011;8539;53.188;8.696;2023-01-28T14:37:14;13.38;;;8.10;;
16845;SDS011;8539;53.188;8.696;2023-01-28T14:39:56;9.65;;;7.35;;
16845;SDS011;8539;53.188;8.696;2023-01-28T14:42:35;11.63;;;8.15;;
16845;SDS011;8539;53.188;8.696;2023-01-28T14:47:45;11.73;;;7.80;;
16845;SDS011;8539;53.188;8.696;2023-01-28T14:58:47;11.80;;;8.73;;
16845;SDS011;8539;53.188;8.696;2023-01-28T15:01:24;10.07;;;7.93;;
16845;SDS011;8539;53.188;8.696;2023-01-28T15:03:54;11.57;;;8.95;;
16845;SDS011;8539;53.188;8.696;2023-01-28T15:06:23;10.50;;;8.27;;
16845;SDS011;8539;53.188;8.696;2023-01-28T15:08:51;10.50;;;7.45;;
16845;SDS011;8539;53.188;8.696;2023-01-28T15:11:22;10.65;;;8.23;;
16845;SDS011;8539;53.188;8.696;2023-01-28T15:13:51;10.70;;;9.55;;
16845;SDS011;8539;53.188;8.696;2023-01-28T15:16:26;13.48;;;7.97;;
16845;SDS011;8539;53.188;8.696;2023-01-28T15:18:55;12.00;;;8.27;;
16845;SDS011;8539;53.188;8.696;2023-01-28T15:21:24;14.70;;;8.80;;
16845;SDS011;8539;53.188;8.696;2023-01-28T15:23:53;11.48;;;8.48;;
16845;SDS011;8539;53.188;8.696;2023-01-28T15:26:28;14.02;;;9.25;;
16845;SDS011;8539;53.188;8.696;2023-01-28T15:28:57;13.30;;;9.18;;
16845;SDS011;8539;53.188;8.696;2023-01-28T15:31:25;14.02;;;9.30;;
16845;SDS011;8539;53.188;8.696;2023-01-28T15:36:29;13.02;;;8.88;;
16845;SDS011;8539;53.188;8.696;2023-01-28T15:38:56;12.60;;;8.68;;
16845;SDS011;8539;53.188;8.696;2023-01-28T15:41:36;14.18;;;8.93;;
16845;SDS011;8539;53.188;8.696;2023-01-28T15:44:05;13.25;;;9.38;;
16845;SDS011;8539;53.188;8.696;2023-01-28T15:46:32;12.07;;;7.88;;
16845;SDS011;8539;53.188;8.696;2023-01-28T15:48:59;10.63;;;7.88;;
16845;SDS011;8539;53.188;8.696;2023-01-28T15:51:28;9.80;;;8.73;;
16845;SDS011;8539;53.188;8.696;2023-01-28T15:53:57;11.07;;;7.93;;
16845;SDS011;8539;53.188;8.696;2023-01-28T15:56:26;10.38;;;8.32;;
16845;SDS011;8539;53.188;8.696;2023-01-28T15:58:53;12.85;;;8.20;;
16845;SDS011;8539;53.188;8.696;2023-01-28T16:01:21;16.27;;;10.05;;
16845;SDS011;8539;53.188;8.696;2023-01-28T16:04:06;17.05;;;10.27;;
16845;SDS011;8539;53.188;8.696;2023-01-28T16:06:45;12.50;;;8.70;;
16845;SDS011;8539;53.188;8.696;2023-01-28T16:09:20;11.38;;;8.30;;
16845;SDS011;8539;53.188;8.696;2023-01-28T16:11:49;12.13;;;8.65;;
16845;SDS011;8539;53.188;8.696;2023-01-28T16:14:29;12.68;;;8.43;;
16845;SDS011;8539;53.188;8.696;2023-01-28T16:16:59;12.55;;;8.50;;
16845;SDS011;8539;53.188;8.696;2023-01-28T16:19:42;12.30;;;9.45;;
16845;SDS011;8539;53.188;8.696;2023-01-28T16:22:21;12.05;;;8.07;;
16845;SDS011;8539;53.188;8.696;2023-01-28T16:24:58;11.70;;;8.70;;
16845;SDS011;8539;53.188;8.696;2023-01-28T16:27:25;12.60;;;9.43;;
16845;SDS011;8539;53.188;8.696;2023-01-28T16:29:53;14.38;;;9.70;;
16845;SDS011;8539;53.188;8.696;2023-01-28T16:32:26;15.60;;;10.50;;
16845;SDS011;8539;53.188;8.696;2023-01-28T16:35:00;16.75;;;10.20;;
16845;SDS011;8539;53.188;8.696;2023-01-28T16:37:27;16.52;;;10.60;;
16845;SDS011;8539;53.188;8.696;2023-01-28T16:39:54;15.73;;;9.77;;
16845;SDS011;8539;53.188;8.696;2023-01-28T16:42:20;14.43;;;10.60;;
16845;SDS011;8539;53.188;8.696;2023-01-28T16:44:46;17.63;;;11.55;;
16845;SDS011;8539;53.188;8.696;2023-01-28T16:47:12;12.88;;;9.13;;
16845;SDS011;8539;53.188;8.696;2023-01-28T16:49:38;15.68;;;9.82;;
16845;SDS011;8539;53.188;8.696;2023-01-28T16:52:04;18.70;;;11.18;;
16845;SDS011;8539;53.188;8.696;2023-01-28T16:54:31;13.05;;;9.88;;
16845;SDS011;8539;53.188;8.696;2023-01-28T16:56:58;14.35;;;10.05;;
16845;SDS011;8539;53.188;8.696;2023-01-28T16:59:25;13.82;;;9.70;;
16845;SDS011;8539;53.188;8.696;2023-01-28T17:01:51;17.00;;;9.48;;
16845;SDS011;8539;53.188;8.696;2023-01-28T17:04:17;18.73;;;11.13;;
16845;SDS011;8539;53.188;8.696;2023-01-28T17:06:43;14.90;;;9.48;;
16845;SDS011;8539;53.188;8.696;2023-01-28T17:09:12;14.10;;;9.32;;
16845;SDS011;8539;53.188;8.696;2023-01-28T17:11:39;16.25;;;9.18;;
16845;SDS011;8539;53.188;8.696;2023-01-28T17:14:05;20.30;;;10.10;;
16845;SDS011;8539;53.188;8.696;2023-01-28T17:16:32;16.02;;;10.50;;
16845;SDS011;8539;53.188;8.696;2023-01-28T17:18:58;14.00;;;9.57;;
16845;SDS011;8539;53.188;8.696;2023-01-28T17:21:24;15.55;;;9.38;;